Time;durP1;ratioP1;P1;durP2;ratioP2;P2;SDS_P1;SDS_P2;PMS_P1;PMS_P2;Temp;Humidity;BMP_temperature;BMP_pressure;BME280_temperature;BME280_humidity;BME280_pressure;Samples;Min_cycle;Max_cycle;Signal;HPM_P1;HPM_P2
2023/06/08 00:01:47;;;;;;;9.47;5.80;;;18.00;71.00;;;;;;5003036;28;20215;-72
2023/06/08 00:04:12;;;;;;;8.30;4.80;;;18.00;71.00;;;;;;5010073;28;20480;-70
2023/06/08 00:06:40;;;;;;;7.00;5.13;;;17.90;71.00;;;;;;5010293;28;20198;-70
2023/06/08 00:09:06;;;;;;;6.50;5.37;;;17.90;71.10;;;;;;5006027;28;20199;-72
2023/06/08 00:11:32;;;;;;;7.87;5.30;;;17.90;71.10;;;;;;5001671;28;20529;-72
2023/06/08 00:13:59;;;;;;;8.73;5.27;;;17.80;71.10;;;;;;5013879;28;20195;-72
2023/06/08 00:16:25;;;;;;;7.40;5.47;;;17.80;71.10;;;;;;5011982;28;20436;-71
2023/06/08 00:18:56;;;;;;;6.60;4.73;;;17.70;71.30;;;;;;5014683;28;20427;-72
2023/06/08 00:21:26;;;;;;;5.17;4.57;;;17.70;71.30;;;;;;5010946;28;20559;-71
2023/06/08 00:23:52;;;;;;;7.70;5.03;;;17.60;71.40;;;;;;5009804;28;20425;-73
2023/06/08 00:26:18;;;;;;;6.27;4.20;;;17.60;71.40;;;;;;5015537;28;20418;-72
2023/06/08 00:28:47;;;;;;;7.20;4.67;;;17.70;71.10;;;;;;5017546;28;20479;-73
2023/06/08 00:31:13;;;;;;;5.57;4.80;;;17.70;71.00;;;;;;5015162;28;20459;-71
2023/06/08 00:33:38;;;;;;;6.43;4.17;;;17.80;70.70;;;;;;5011475;28;20778;-72
2023/06/08 00:36:04;;;;;;;5.67;4.30;;;17.80;70.70;;;;;;5016091;28;20684;-72
2023/06/08 00:38:31;;;;;;;6.23;4.70;;;17.80;70.70;;;;;;5013300;28;20561;-73
2023/06/08 00:40:56;;;;;;;5.20;4.47;;;17.90;70.70;;;;;;5012624;28;20470;-72
2023/06/08 00:43:22;;;;;;;6.50;4.70;;;17.90;70.80;;;;;;5014273;28;20432;-72
2023/06/08 00:45:47;;;;;;;8.00;4.93;;;17.90;70.80;;;;;;5012976;28;20188;-70
2023/06/08 00:48:15;;;;;;;7.00;4.97;;;18.00;70.80;;;;;;5009731;28;20207;-71
2023/06/08 00:50:41;;;;;;;6.80;4.70;;;18.10;70.70;;;;;;4999013;28;20212;-72
2023/06/08 00:53:07;;;;;;;8.13;5.33;;;18.10;70.70;;;;;;5008571;28;20424;-71
2023/06/08 00:55:33;;;;;;;7.77;5.10;;;18.00;70.80;;;;;;5010893;28;20427;-71
2023/06/08 00:58:00;;;;;;;6.57;5.30;;;17.90;71.00;;;;;;5006925;28;20178;-72
2023/06/08 01:00:27;;;;;;;7.23;5.03;;;17.80;71.10;;;;;;5008000;28;20468;-72
2023/06/08 01:02:55;;;;;;;6.07;4.80;;;17.70;71.30;;;;;;5009144;28;20962;-73
2023/06/08 01:05:21;;;;;;;7.20;5.10;;;17.70;71.10;;;;;;5007321;28;20429;-71
2023/06/08 01:08:31;;;;;;;8.60;5.43;;;17.80;71.10;;;;;;5005494;28;20460;-72
2023/06/08 01:11:16;;;;;;;8.17;5.20;;;17.80;71.10;;;;;;4991108;28;20465;-72
2023/06/08 01:14:13;;;;;;;6.93;4.40;;;17.70;71.10;;;;;;5003468;28;20422;-71
2023/06/08 01:16:49;;;;;;;8.80;4.90;;;17.60;71.40;;;;;;5004309;28;20427;-73
2023/06/08 01:19:23;;;;;;;6.30;4.97;;;17.60;71.30;;;;;;5004353;28;20998;-73
2023/06/08 01:21:57;;;;;;;7.70;4.80;;;17.60;71.40;;;;;;5007688;28;20475;-71
2023/06/08 01:24:25;;;;;;;7.90;4.67;;;17.70;71.00;;;;;;5011309;28;20408;-72
2023/06/08 01:26:52;;;;;;;5.07;4.40;;;17.60;71.30;;;;;;5011649;28;20513;-73
2023/06/08 01:29:25;;;;;;;7.60;4.60;;;17.50;71.60;;;;;;5008598;28;20783;-72
2023/06/08 01:31:50;;;;;;;6.83;4.30;;;17.50;71.70;;;;;;5007519;28;20522;-70
2023/06/08 01:34:17;;;;;;;8.80;5.73;;;17.40;71.70;;;;;;5008698;28;20803;-70
2023/06/08 01:37:10;;;;;;;5.97;5.10;;;17.40;71.60;;;;;;5008551;28;20270;-72
2023/06/08 01:39:57;;;;;;;8.80;5.03;;;17.50;71.70;;;;;;5002444;28;20442;-70
2023/06/08 01:42:25;;;;;;;6.63;4.87;;;17.40;71.80;;;;;;5003984;28;20469;-71
2023/06/08 01:45:06;;;;;;;5.63;5.20;;;17.20;72.00;;;;;;5009252;28;20455;-71
2023/06/08 01:47:38;;;;;;;5.83;4.30;;;17.10;72.30;;;;;;5009572;28;20558;-70
2023/06/08 01:50:07;;;;;;;6.30;4.47;;;17.00;72.10;;;;;;5009162;28;20432;-72
2023/06/08 01:52:33;;;;;;;5.87;4.40;;;17.00;72.60;;;;;;5004831;28;20484;-72
2023/06/08 01:54:59;;;;;;;13.07;4.57;;;17.00;72.60;;;;;;5009063;28;20440;-71
2023/06/08 01:57:25;;;;;;;6.50;4.70;;;17.00;72.40;;;;;;5008708;28;20193;-71
2023/06/08 01:59:50;;;;;;;7.57;4.90;;;17.00;72.30;;;;;;5008510;28;20220;-72
2023/06/08 02:02:16;;;;;;;6.50;4.53;;;17.00;72.30;;;;;;5005213;28;20222;-73
2023/06/08 02:04:42;;;;;;;6.87;5.13;;;17.10;72.00;;;;;;5008250;28;20193;-73
2023/06/08 02:07:07;;;;;;;8.30;5.17;;;17.10;72.10;;;;;;5008292;28;20208;-72
2023/06/08 02:09:33;;;;;;;6.40;4.87;;;17.00;72.30;;;;;;5006620;28;20420;-73
2023/06/08 02:12:08;;;;;;;6.30;5.27;;;17.00;72.40;;;;;;5000659;28;20205;-72
2023/06/08 02:14:34;;;;;;;8.20;5.83;;;16.90;72.70;;;;;;5006558;28;20192;-72
2023/06/08 02:17:00;;;;;;;8.17;5.57;;;16.80;73.20;;;;;;5005454;28;20489;-72
2023/06/08 02:19:26;;;;;;;8.10;5.20;;;16.80;73.20;;;;;;5006207;28;20998;-70
2023/06/08 02:21:52;;;;;;;6.27;5.00;;;16.80;73.30;;;;;;4998368;28;20217;-71
2023/06/08 02:24:19;;;;;;;8.40;5.20;;;16.80;72.90;;;;;;5007426;28;20425;-71
2023/06/08 02:26:44;;;;;;;6.93;4.90;;;16.90;72.90;;;;;;5005604;28;20816;-71
2023/06/08 02:29:10;;;;;;;6.17;4.80;;;16.90;72.60;;;;;;5003429;28;20428;-72
2023/06/08 02:31:35;;;;;;;6.83;5.00;;;16.90;72.60;;;;;;5004308;28;20660;-72
2023/06/08 02:34:01;;;;;;;6.80;5.20;;;16.90;72.40;;;;;;5001993;28;20636;-71
2023/06/08 02:36:31;;;;;;;6.53;4.90;;;16.80;72.40;;;;;;5003618;28;20254;-70
2023/06/08 02:38:57;;;;;;;5.47;4.30;;;16.80;73.00;;;;;;5007320;28;20193;-71
2023/06/08 02:41:23;;;;;;;6.50;5.27;;;16.80;73.20;;;;;;5007937;28;20467;-72
2023/06/08 02:43:48;;;;;;;6.27;4.73;;;16.70;73.20;;;;;;5013449;28;20440;-73
2023/06/08 02:46:14;;;;;;;7.57;5.23;;;16.60;73.60;;;;;;5012444;28;20715;-70
2023/06/08 02:48:40;;;;;;;8.27;5.23;;;16.70;73.60;;;;;;5011718;28;20228;-72
2023/06/08 02:51:06;;;;;;;6.70;4.97;;;16.70;73.50;;;;;;5007703;28;20213;-72
2023/06/08 02:53:31;;;;;;;7.70;5.70;;;16.60;73.50;;;;;;5013668;28;20653;-72
2023/06/08 02:55:58;;;;;;;9.40;5.00;;;16.60;73.30;;;;;;5010462;28;20477;-72
2023/06/08 02:58:23;;;;;;;8.93;5.67;;;16.60;73.50;;;;;;5010933;28;20220;-70
2023/06/08 03:00:53;;;;;;;6.90;4.73;;;16.60;73.70;;;;;;5011856;28;20491;-70
2023/06/08 03:03:23;;;;;;;6.30;5.47;;;16.40;74.30;;;;;;5004771;28;20189;-71
2023/06/08 03:05:58;;;;;;;6.30;5.00;;;16.30;74.90;;;;;;5008818;28;20420;-71
2023/06/08 03:08:28;;;;;;;7.23;5.70;;;16.20;75.20;;;;;;5012574;28;20877;-73
2023/06/08 03:10:54;;;;;;;8.13;5.87;;;16.10;75.40;;;;;;5013064;28;20997;-72
2023/06/08 03:13:21;;;;;;;9.40;6.00;;;16.10;75.40;;;;;;5014621;28;20417;-72
2023/06/08 03:15:47;;;;;;;9.80;6.50;;;16.10;75.40;;;;;;5013321;28;20426;-71
2023/06/08 03:18:13;;;;;;;12.03;6.07;;;16.00;75.20;;;;;;5008833;28;20420;-74
2023/06/08 03:20:40;;;;;;;8.67;6.30;;;16.00;75.70;;;;;;5010115;28;20210;-72
2023/06/08 03:23:06;;;;;;;9.50;6.30;;;16.00;75.70;;;;;;5015599;28;20182;-72
2023/06/08 03:25:36;;;;;;;10.30;6.40;;;16.00;75.90;;;;;;5013871;28;20795;-72
2023/06/08 03:28:02;;;;;;;9.07;5.80;;;16.00;75.90;;;;;;5013347;28;20483;-72
2023/06/08 03:30:28;;;;;;;8.80;5.50;;;16.10;75.50;;;;;;5009069;28;21287;-72
2023/06/08 03:32:54;;;;;;;7.03;4.77;;;16.30;75.10;;;;;;5013119;28;20186;-73
2023/06/08 03:35:20;;;;;;;7.20;5.40;;;16.30;74.80;;;;;;5011113;28;20423;-72
2023/06/08 03:37:45;;;;;;;7.43;5.00;;;16.10;75.20;;;;;;5011962;28;20954;-71
2023/06/08 03:40:11;;;;;;;6.73;5.07;;;15.90;75.90;;;;;;5009335;28;20188;-71
2023/06/08 03:42:36;;;;;;;7.53;5.90;;;15.80;76.20;;;;;;5011537;28;20198;-73
2023/06/08 03:45:02;;;;;;;6.33;5.20;;;15.80;76.50;;;;;;5012786;28;20181;-71
2023/06/08 03:47:28;;;;;;;11.00;6.73;;;15.80;76.80;;;;;;5010193;28;20240;-71
2023/06/08 03:49:53;;;;;;;7.90;6.57;;;15.80;76.80;;;;;;5012168;28;20184;-71
2023/06/08 03:52:19;;;;;;;9.67;6.03;;;15.80;76.80;;;;;;5007033;28;20291;-72
2023/06/08 03:54:45;;;;;;;9.00;6.43;;;15.80;76.80;;;;;;5013824;28;20207;-73
2023/06/08 03:57:10;;;;;;;7.47;5.80;;;15.90;76.50;;;;;;5003974;28;20706;-72
2023/06/08 03:59:37;;;;;;;8.43;5.97;;;16.00;76.40;;;;;;5008337;28;20782;-72
2023/06/08 04:02:03;;;;;;;6.03;5.30;;;16.00;76.10;;;;;;5005740;28;20219;-70
2023/06/08 04:04:31;;;;;;;7.20;4.97;;;16.10;75.70;;;;;;5009987;28;20420;-71
2023/06/08 04:07:00;;;;;;;5.77;4.90;;;16.20;75.50;;;;;;5011109;28;20209;-72
2023/06/08 04:09:28;;;;;;;7.90;5.43;;;16.20;75.20;;;;;;5012782;28;20843;-71
2023/06/08 04:11:55;;;;;;;7.83;5.53;;;16.30;74.90;;;;;;5004591;28;20814;-72
2023/06/08 04:14:21;;;;;;;7.30;5.60;;;16.20;74.90;;;;;;5010359;28;20749;-72
2023/06/08 04:16:46;;;;;;;9.60;6.00;;;16.10;75.20;;;;;;5012669;28;20427;-72
2023/06/08 04:19:12;;;;;;;9.63;6.30;;;16.10;75.20;;;;;;5011440;28;20213;-72
2023/06/08 04:21:38;;;;;;;7.63;5.53;;;16.10;75.40;;;;;;5008374;28;20213;-72
2023/06/08 04:24:03;;;;;;;8.50;5.47;;;16.10;75.20;;;;;;5014475;28;20186;-71
2023/06/08 04:26:29;;;;;;;8.07;5.43;;;16.10;75.10;;;;;;5014702;28;20223;-73
2023/06/08 04:28:55;;;;;;;6.97;5.10;;;16.00;75.40;;;;;;5014401;28;20484;-72
2023/06/08 04:31:21;;;;;;;7.50;5.60;;;16.10;75.50;;;;;;5013099;28;20440;-73
2023/06/08 04:33:46;;;;;;;6.60;5.93;;;16.00;75.70;;;;;;5013546;28;20243;-72
2023/06/08 04:36:12;;;;;;;8.37;5.97;;;16.00;76.10;;;;;;5014148;28;20211;-72
2023/06/08 04:38:38;;;;;;;7.07;5.30;;;15.90;76.20;;;;;;5014530;28;20271;-71
2023/06/08 04:41:07;;;;;;;9.10;6.63;;;15.90;76.50;;;;;;5010732;28;20228;-72
2023/06/08 04:43:33;;;;;;;9.43;6.20;;;15.70;76.70;;;;;;5015093;28;20441;-74
2023/06/08 04:45:59;;;;;;;7.73;5.83;;;15.70;77.10;;;;;;5015462;28;20428;-72
2023/06/08 04:48:26;;;;;;;8.90;6.53;;;15.70;77.10;;;;;;5013930;28;20466;-71
2023/06/08 04:50:52;;;;;;;7.60;5.70;;;15.70;77.10;;;;;;5010612;28;20473;-75
2023/06/08 04:53:18;;;;;;;8.97;5.83;;;15.80;77.00;;;;;;5012290;28;20413;-72
2023/06/08 04:55:45;;;;;;;8.30;5.93;;;15.90;76.80;;;;;;5007075;28;20486;-73
2023/06/08 04:58:13;;;;;;;10.90;7.20;;;16.00;76.50;;;;;;5008349;28;20534;-71
2023/06/08 05:00:38;;;;;;;8.70;6.37;;;16.10;76.10;;;;;;5006452;28;21014;-75
2023/06/08 05:03:04;;;;;;;9.20;6.73;;;16.30;75.50;;;;;;5004400;28;20429;-74
2023/06/08 05:05:30;;;;;;;10.47;6.50;;;16.30;75.20;;;;;;5011037;28;20627;-72
2023/06/08 05:07:55;;;;;;;7.43;5.90;;;16.40;75.40;;;;;;5009973;28;20308;-74
2023/06/08 05:10:21;;;;;;;10.10;6.83;;;16.50;74.90;;;;;;5007546;28;20189;-72
2023/06/08 05:12:46;;;;;;;10.20;6.93;;;16.70;74.50;;;;;;5005951;28;20189;-73
2023/06/08 05:15:12;;;;;;;9.07;6.93;;;16.80;73.90;;;;;;5008292;28;20189;-73
2023/06/08 05:17:38;;;;;;;10.17;6.40;;;17.00;73.60;;;;;;5007120;28;20618;-73
2023/06/08 05:20:04;;;;;;;13.37;6.43;;;17.30;72.70;;;;;;5007450;28;20245;-74
2023/06/08 05:22:30;;;;;;;9.30;6.97;;;17.60;72.10;;;;;;5002959;28;20198;-72
2023/06/08 05:24:55;;;;;;;10.37;6.60;;;17.70;71.10;;;;;;5007052;28;20912;-74
2023/06/08 05:27:21;;;;;;;9.67;6.77;;;17.90;71.00;;;;;;5005618;28;20371;-73
2023/06/08 05:29:46;;;;;;;7.50;5.67;;;18.10;70.40;;;;;;5008924;28;20222;-73
2023/06/08 05:32:12;;;;;;;9.13;6.67;;;18.30;69.80;;;;;;5002628;28;20222;-72
2023/06/08 05:34:37;;;;;;;7.73;6.30;;;18.50;68.90;;;;;;5007909;28;20846;-74
2023/06/08 05:37:03;;;;;;;7.97;5.90;;;18.70;68.60;;;;;;5005167;28;20219;-74
2023/06/08 05:39:29;;;;;;;7.13;5.77;;;18.80;68.30;;;;;;5008146;28;20268;-73
2023/06/08 05:41:55;;;;;;;9.67;6.80;;;18.90;68.00;;;;;;5003789;28;20585;-74
2023/06/08 05:44:20;;;;;;;12.83;6.83;;;18.80;67.90;;;;;;5004733;28;20195;-76
2023/06/08 05:46:46;;;;;;;9.90;6.23;;;18.60;68.80;;;;;;5009547;28;20195;-72
2023/06/08 05:49:11;;;;;;;14.50;7.47;;;18.50;69.40;;;;;;5006603;28;20695;-72
2023/06/08 05:51:37;;;;;;;11.10;6.80;;;18.70;69.20;;;;;;5005007;28;20742;-74
2023/06/08 05:54:03;;;;;;;10.33;7.00;;;18.90;68.50;;;;;;5005512;28;20193;-74
2023/06/08 05:56:28;;;;;;;10.23;6.23;;;18.90;68.50;;;;;;5008251;28;20638;-73
2023/06/08 05:58:54;;;;;;;11.13;6.50;;;19.20;67.90;;;;;;5009838;28;20196;-75
2023/06/08 06:01:20;;;;;;;8.00;6.30;;;19.40;67.30;;;;;;5004240;28;20248;-72
2023/06/08 06:03:46;;;;;;;10.17;6.80;;;19.50;67.00;;;;;;5005400;28;20287;-73
2023/06/08 06:06:12;;;;;;;8.27;6.60;;;19.70;66.60;;;;;;5006077;28;20570;-75
2023/06/08 06:08:38;;;;;;;8.57;6.47;;;19.80;66.30;;;;;;5008745;28;20564;-74
2023/06/08 06:11:04;;;;;;;10.20;8.03;;;20.00;66.00;;;;;;5003597;28;20232;-72
2023/06/08 06:13:31;;;;;;;8.53;6.43;;;19.70;65.80;;;;;;5009008;28;20491;-71
2023/06/08 06:15:57;;;;;;;11.00;6.60;;;19.70;66.40;;;;;;5008772;28;20198;-73
2023/06/08 06:18:23;;;;;;;8.40;6.17;;;19.90;66.00;;;;;;5010648;28;20504;-73
2023/06/08 06:20:49;;;;;;;8.50;6.90;;;20.10;65.60;;;;;;5003615;28;21207;-72
2023/06/08 06:23:14;;;;;;;8.50;6.60;;;20.30;65.10;;;;;;5007820;28;20256;-73
2023/06/08 06:25:40;;;;;;;16.77;7.10;;;20.40;64.80;;;;;;5006296;28;20191;-72
2023/06/08 06:28:05;;;;;;;9.83;7.53;;;20.40;65.10;;;;;;5014484;28;20241;-73
2023/06/08 06:30:31;;;;;;;10.33;7.50;;;20.10;65.80;;;;;;5011116;28;20210;-72
2023/06/08 06:32:57;;;;;;;8.80;7.30;;;19.90;66.60;;;;;;5007488;28;20202;-72
2023/06/08 06:35:22;;;;;;;10.30;7.40;;;19.90;66.90;;;;;;5009151;28;20190;-72
2023/06/08 06:37:49;;;;;;;9.07;7.60;;;20.00;67.20;;;;;;5009840;28;20211;-73
2023/06/08 06:40:15;;;;;;;11.37;7.47;;;20.30;66.30;;;;;;5009927;28;20182;-74
2023/06/08 06:42:40;;;;;;;10.70;7.00;;;20.50;66.00;;;;;;5007765;28;20429;-71
2023/06/08 06:45:06;;;;;;;9.27;7.07;;;20.60;65.70;;;;;;5012311;28;20191;-71
2023/06/08 06:47:32;;;;;;;7.90;6.97;;;20.70;65.30;;;;;;5014327;28;20219;-74
2023/06/08 06:49:57;;;;;;;10.20;7.60;;;20.70;65.00;;;;;;5011179;28;20252;-73
2023/06/08 06:52:23;;;;;;;8.20;6.67;;;20.70;65.00;;;;;;5004047;28;20279;-71
2023/06/08 06:54:48;;;;;;;10.60;6.47;;;20.80;64.50;;;;;;5008827;28;20206;-73
2023/06/08 06:57:14;;;;;;;10.23;6.80;;;20.90;64.40;;;;;;5009852;28;20185;-72
2023/06/08 06:59:40;;;;;;;8.87;6.70;;;21.00;64.10;;;;;;5010013;28;20899;-72
2023/06/08 07:02:07;;;;;;;8.87;6.10;;;21.00;63.80;;;;;;5004974;28;20208;-73
2023/06/08 07:04:32;;;;;;;7.20;6.40;;;21.10;63.90;;;;;;5008793;28;20192;-74
2023/06/08 07:06:58;;;;;;;8.60;7.13;;;21.30;63.80;;;;;;5004792;28;20801;-74
2023/06/08 07:09:24;;;;;;;7.70;6.03;;;21.30;63.50;;;;;;5003961;28;20227;-74
2023/06/08 07:11:51;;;;;;;8.83;7.27;;;21.30;63.50;;;;;;4999466;28;20220;-74
2023/06/08 07:14:16;;;;;;;7.60;5.83;;;21.40;63.40;;;;;;5004240;28;20462;-73
2023/06/08 07:16:42;;;;;;;8.20;6.63;;;21.50;63.40;;;;;;4999998;28;20506;-72
2023/06/08 07:19:07;;;;;;;9.93;6.97;;;21.60;63.20;;;;;;5006039;28;20335;-73
2023/06/08 07:21:38;;;;;;;10.87;8.00;;;21.50;62.60;;;;;;5001337;28;20209;-74
2023/06/08 07:24:04;;;;;;;9.40;7.07;;;21.50;62.90;;;;;;5006681;28;20188;-73
2023/06/08 07:26:30;;;;;;;8.87;6.20;;;21.60;63.10;;;;;;5000951;28;20481;-74
2023/06/08 07:28:56;;;;;;;13.13;7.07;;;21.80;62.50;;;;;;5007895;28;20553;-74
2023/06/08 07:31:22;;;;;;;13.00;8.20;;;21.70;62.00;;;;;;5003141;28;20298;-72
2023/06/08 07:33:48;;;;;;;8.53;7.17;;;21.70;61.90;;;;;;5003061;28;20184;-73
2023/06/08 07:36:14;;;;;;;13.20;7.17;;;21.80;62.00;;;;;;5014654;28;20814;-74
2023/06/08 07:38:40;;;;;;;7.90;6.27;;;21.50;61.30;;;;;;5015105;28;20190;-72
2023/06/08 07:41:05;;;;;;;7.47;5.63;;;21.20;62.60;;;;;;5006175;28;20212;-73
2023/06/08 07:43:31;;;;;;;7.93;5.53;;;21.40;62.60;;;;;;5002444;28;20625;-74
2023/06/08 07:45:56;;;;;;;11.63;6.83;;;21.60;62.50;;;;;;5002907;28;20185;-73
2023/06/08 07:48:22;;;;;;;8.53;6.90;;;21.40;62.20;;;;;;5003831;28;20217;-74
2023/06/08 07:50:48;;;;;;;10.90;7.10;;;21.20;62.80;;;;;;5004099;28;20219;-74
2023/06/08 07:53:14;;;;;;;9.13;6.40;;;21.30;62.00;;;;;;5009553;28;20534;-74
2023/06/08 07:55:40;;;;;;;6.90;5.63;;;21.50;61.70;;;;;;5009694;28;20189;-74
2023/06/08 07:58:06;;;;;;;8.37;5.87;;;21.50;62.20;;;;;;5009212;28;20490;-75
2023/06/08 08:00:32;;;;;;;11.20;6.30;;;21.80;60.90;;;;;;5006046;28;20464;-74
2023/06/08 08:02:58;;;;;;;10.90;7.83;;;22.00;60.60;;;;;;5007784;28;20795;-73
2023/06/08 08:05:23;;;;;;;12.33;8.77;;;22.00;59.90;;;;;;5007109;28;21152;-72
2023/06/08 08:07:49;;;;;;;13.47;9.27;;;21.90;59.90;;;;;;5006765;28;20208;-73
2023/06/08 08:10:15;;;;;;;14.70;8.23;;;21.90;60.40;;;;;;5006977;28;20263;-72
2023/06/08 08:12:42;;;;;;;9.60;6.83;;;22.10;60.30;;;;;;5007449;28;20199;-74
2023/06/08 08:15:08;;;;;;;11.10;8.00;;;22.40;59.90;;;;;;5010898;28;20183;-73
2023/06/08 08:17:34;;;;;;;12.33;8.97;;;22.50;59.70;;;;;;5010156;28;20484;-74
2023/06/08 08:20:00;;;;;;;11.90;7.80;;;22.60;59.70;;;;;;5007024;28;20546;-75
2023/06/08 08:22:26;;;;;;;8.47;7.53;;;22.80;59.60;;;;;;5002607;28;20209;-74
2023/06/08 08:24:51;;;;;;;12.10;8.30;;;22.80;59.30;;;;;;5004145;28;20282;-72
2023/06/08 08:27:17;;;;;;;7.73;7.33;;;22.30;61.70;;;;;;5007861;28;20191;-73
2023/06/08 08:29:43;;;;;;;8.77;7.07;;;22.30;62.80;;;;;;5012486;28;20193;-72
2023/06/08 08:32:09;;;;;;;9.93;7.40;;;22.40;62.50;;;;;;5006348;28;20213;-72
2023/06/08 08:34:35;;;;;;;11.80;6.90;;;22.60;62.50;;;;;;5009703;28;20428;-73
2023/06/08 08:37:01;;;;;;;11.13;7.30;;;22.60;62.60;;;;;;5009266;28;20187;-74
2023/06/08 08:39:26;;;;;;;9.70;7.33;;;22.70;62.50;;;;;;5012187;28;20485;-74
2023/06/08 08:41:55;;;;;;;11.63;7.27;;;22.70;62.20;;;;;;5005829;28;20214;-72
2023/06/08 08:44:21;;;;;;;11.63;8.00;;;22.70;62.20;;;;;;5009322;28;20261;-75
2023/06/08 08:46:49;;;;;;;10.10;7.37;;;22.70;62.20;;;;;;5008065;28;20440;-73
2023/06/08 08:49:16;;;;;;;11.60;8.43;;;22.80;62.60;;;;;;5009725;28;20235;-71
2023/06/08 08:52:01;;;;;;;11.37;7.27;;;22.80;60.70;;;;;;5006560;28;20555;-74
2023/06/08 08:54:33;;;;;;;13.97;9.70;;;22.50;61.60;;;;;;5009251;28;20426;-74
2023/06/08 08:56:59;;;;;;;15.00;10.03;;;22.40;61.90;;;;;;5009830;28;20422;-72
2023/06/08 08:59:28;;;;;;;16.93;10.40;;;22.40;60.70;;;;;;5011833;28;20425;-75
2023/06/08 09:01:54;;;;;;;13.90;10.47;;;22.50;61.60;;;;;;5003859;28;20494;-74
2023/06/08 09:04:20;;;;;;;8.60;7.13;;;22.60;61.30;;;;;;5006646;28;20462;-76
2023/06/08 09:06:48;;;;;;;9.47;7.03;;;22.70;60.60;;;;;;5007554;28;20513;-73
2023/06/08 09:09:14;;;;;;;10.30;7.93;;;22.40;60.10;;;;;;5007006;28;20214;-74
2023/06/08 09:11:55;;;;;;;14.20;7.80;;;22.40;60.30;;;;;;5007967;28;20457;-74
2023/06/08 09:14:21;;;;;;;10.60;7.10;;;22.50;60.60;;;;;;5004096;28;20196;-75
2023/06/08 09:16:47;;;;;;;11.87;8.03;;;22.50;60.30;;;;;;5009165;28;20506;-73
2023/06/08 09:19:13;;;;;;;8.90;7.07;;;22.70;59.60;;;;;;5004415;28;20191;-73
2023/06/08 09:21:40;;;;;;;9.73;7.03;;;22.70;59.70;;;;;;5008053;28;20528;-73
2023/06/08 09:24:46;;;;;;;10.50;7.00;;;22.70;59.10;;;;;;5010428;28;21397;-74
2023/06/08 09:27:25;;;;;;;8.17;6.33;;;22.60;59.60;;;;;;5005993;28;20426;-75
2023/06/08 09:29:52;;;;;;;10.90;6.90;;;22.80;59.50;;;;;;5010188;28;20839;-71
2023/06/08 09:32:25;;;;;;;10.97;6.90;;;22.80;58.80;;;;;;5002929;28;20459;-74
2023/06/08 09:34:56;;;;;;;9.23;6.70;;;22.90;58.50;;;;;;5008289;28;20564;-73
2023/06/08 09:37:31;;;;;;;10.93;6.20;;;23.10;57.60;;;;;;5010531;28;20441;-71
2023/06/08 09:40:01;;;;;;;8.27;6.10;;;23.20;56.80;;;;;;5010426;28;20435;-72
2023/06/08 09:42:44;;;;;;;7.43;6.03;;;23.30;56.10;;;;;;5005380;28;20492;-73
2023/06/08 09:45:14;;;;;;;9.63;6.67;;;23.50;55.30;;;;;;5004606;28;20466;-72
2023/06/08 09:47:42;;;;;;;7.47;6.40;;;23.50;54.60;;;;;;5008702;28;21197;-74
2023/06/08 09:50:08;;;;;;;7.13;6.40;;;23.30;55.00;;;;;;5004512;28;20989;-72
2023/06/08 09:52:36;;;;;;;7.37;5.77;;;23.30;54.90;;;;;;5006045;28;20439;-72
2023/06/08 09:55:03;;;;;;;8.20;6.00;;;23.40;55.00;;;;;;5006841;28;20519;-72
2023/06/08 09:57:34;;;;;;;7.90;6.53;;;23.60;54.10;;;;;;5009044;28;20476;-72
2023/06/08 10:00:09;;;;;;;9.60;5.90;;;23.80;53.70;;;;;;5008797;28;20484;-73
2023/06/08 10:02:41;;;;;;;8.27;6.87;;;24.00;53.30;;;;;;5003147;28;20463;-74
2023/06/08 10:05:13;;;;;;;8.90;7.10;;;24.20;52.80;;;;;;5006206;28;20498;-72
2023/06/08 10:07:44;;;;;;;7.00;6.27;;;24.30;52.40;;;;;;5000481;28;20511;-75
2023/06/08 10:10:19;;;;;;;9.93;7.27;;;24.40;52.60;;;;;;5003482;28;20458;-72
2023/06/08 10:12:45;;;;;;;8.53;6.90;;;24.30;53.00;;;;;;5019146;28;20461;-72
2023/06/08 10:15:11;;;;;;;7.50;6.70;;;24.40;53.30;;;;;;5005578;28;20975;-72
2023/06/08 10:17:38;;;;;;;9.17;6.17;;;24.80;52.10;;;;;;5003227;28;20196;-73
2023/06/08 10:20:05;;;;;;;7.90;6.57;;;25.20;51.60;;;;;;5005879;28;20197;-73
2023/06/08 10:22:32;;;;;;;7.90;6.10;;;25.60;50.20;;;;;;5004143;28;20468;-73
2023/06/08 10:24:58;;;;;;;9.33;6.70;;;25.90;49.10;;;;;;5003346;28;20569;-72
2023/06/08 10:27:24;;;;;;;8.40;7.03;;;25.90;48.70;;;;;;5003841;28;20474;-73
2023/06/08 10:30:00;;;;;;;8.87;6.87;;;25.70;49.70;;;;;;4998751;28;20443;-74
2023/06/08 10:32:38;;;;;;;10.00;6.67;;;25.80;48.10;;;;;;5004565;28;21507;-73
2023/06/08 10:35:06;;;;;;;7.83;6.33;;;25.50;47.90;;;;;;5002443;28;20432;-74
2023/06/08 10:37:33;;;;;;;7.93;5.90;;;25.70;48.70;;;;;;5002028;28;20522;-74
2023/06/08 10:40:06;;;;;;;7.77;6.17;;;26.10;48.70;;;;;;5000075;28;20421;-74
2023/06/08 10:42:32;;;;;;;9.00;7.00;;;26.40;47.90;;;;;;5000912;28;20455;-72
2023/06/08 10:44:58;;;;;;;7.70;6.67;;;25.80;47.10;;;;;;5008151;28;20504;-72
2023/06/08 10:47:25;;;;;;;9.37;6.77;;;25.80;45.50;;;;;;5007402;28;21664;-73
2023/06/08 10:50:06;;;;;;;8.40;6.67;;;26.30;45.40;;;;;;5003022;28;20427;-74
2023/06/08 10:52:44;;;;;;;8.33;6.37;;;26.20;45.40;;;;;;4999904;28;20464;-73
2023/06/08 10:55:12;;;;;;;10.13;7.20;;;25.80;46.30;;;;;;5002148;28;21056;-73
2023/06/08 10:57:45;;;;;;;7.37;6.47;;;26.30;45.40;;;;;;5007039;28;20866;-72
2023/06/08 11:00:26;;;;;;;8.47;6.80;;;26.90;43.80;;;;;;5010601;28;20447;-72
2023/06/08 11:02:53;;;;;;;9.73;6.30;;;27.40;41.90;;;;;;5002863;28;20471;-72
2023/06/08 11:05:20;;;;;;;8.10;6.67;;;27.30;41.60;;;;;;5009287;28;20850;-74
2023/06/08 11:07:46;;;;;;;9.07;6.97;;;27.60;41.00;;;;;;5009740;28;20468;-73
2023/06/08 11:10:12;;;;;;;8.93;7.10;;;27.60;41.40;;;;;;5013577;28;20439;-74
2023/06/08 11:12:38;;;;;;;11.10;7.17;;;27.90;41.20;;;;;;5006916;28;20444;-72
2023/06/08 11:15:04;;;;;;;7.70;6.83;;;28.00;41.50;;;;;;5007206;28;20520;-73
2023/06/08 11:17:32;;;;;;;9.87;8.57;;;28.40;41.20;;;;;;5008175;28;20182;-73
2023/06/08 11:20:04;;;;;;;10.00;8.47;;;28.60;41.20;;;;;;5005987;28;20463;-72
2023/06/08 11:22:30;;;;;;;10.70;9.20;;;27.10;45.30;;;;;;5006362;28;20989;-73
2023/06/08 11:24:55;;;;;;;10.10;7.90;;;26.60;45.90;;;;;;5006453;28;20414;-73
2023/06/08 11:27:21;;;;;;;11.00;7.53;;;26.40;45.50;;;;;;5008514;28;20213;-73
2023/06/08 11:29:47;;;;;;;10.80;7.60;;;26.70;45.70;;;;;;5003263;28;20269;-75
2023/06/08 11:32:15;;;;;;;10.10;7.90;;;27.20;44.70;;;;;;5008944;28;20238;-73
2023/06/08 11:34:45;;;;;;;8.90;7.90;;;27.50;44.10;;;;;;5013070;28;20425;-73
2023/06/08 11:37:17;;;;;;;9.17;7.40;;;27.80;42.00;;;;;;5008107;28;20437;-72
2023/06/08 11:39:47;;;;;;;8.83;7.30;;;28.30;42.40;;;;;;5012996;28;20931;-72
2023/06/08 11:42:13;;;;;;;9.57;7.63;;;28.60;41.60;;;;;;5007155;28;20468;-73
2023/06/08 11:44:39;;;;;;;12.10;8.43;;;28.90;41.20;;;;;;5010665;28;20544;-73
2023/06/08 11:47:08;;;;;;;11.07;9.40;;;28.80;41.80;;;;;;5006098;28;20429;-72
2023/06/08 11:49:53;;;;;;;10.07;8.17;;;28.90;41.90;;;;;;5006303;28;20568;-75
2023/06/08 11:52:21;;;;;;;12.83;8.60;;;29.10;41.50;;;;;;5005351;28;20472;-73
2023/06/08 11:54:54;;;;;;;9.83;7.20;;;29.30;40.30;;;;;;5009055;28;20421;-74
2023/06/08 11:57:21;;;;;;;9.40;7.87;;;29.60;39.50;;;;;;5008552;28;20502;-73
2023/06/08 11:59:47;;;;;;;9.77;8.10;;;28.80;40.60;;;;;;5006145;28;20426;-75
2023/06/08 12:02:13;;;;;;;9.87;7.90;;;28.70;41.40;;;;;;5004713;28;20538;-72
2023/06/08 12:04:40;;;;;;;8.87;7.70;;;29.10;40.20;;;;;;5012378;28;20421;-73
2023/06/08 12:07:14;;;;;;;10.37;8.77;;;28.80;40.00;;;;;;5010473;28;20427;-73
2023/06/08 12:09:51;;;;;;;8.47;7.20;;;28.40;41.50;;;;;;5009998;28;20440;-73
2023/06/08 12:12:17;;;;;;;9.17;7.33;;;28.40;41.90;;;;;;5009615;28;20460;-76
2023/06/08 12:14:46;;;;;;;9.37;7.57;;;28.60;41.60;;;;;;5011488;28;20428;-75
2023/06/08 12:17:16;;;;;;;11.80;8.83;;;28.70;41.10;;;;;;5014100;28;20187;-72
2023/06/08 12:19:45;;;;;;;12.20;8.20;;;28.70;41.40;;;;;;5007227;28;20454;-73
2023/06/08 12:22:13;;;;;;;7.90;6.90;;;28.50;42.00;;;;;;5001001;28;20819;-73
2023/06/08 12:24:39;;;;;;;8.60;7.17;;;28.20;40.00;;;;;;5004713;28;20416;-72
2023/06/08 12:27:08;;;;;;;9.97;8.43;;;28.00;40.60;;;;;;5006955;28;20437;-74
2023/06/08 12:29:36;;;;;;;12.47;10.03;;;27.60;42.60;;;;;;5005185;28;20436;-72
2023/06/08 12:32:02;;;;;;;8.83;7.30;;;27.50;43.20;;;;;;5004480;28;20968;-73
2023/06/08 12:34:29;;;;;;;12.10;7.10;;;27.40;43.90;;;;;;5002736;28;20528;-73
2023/06/08 12:36:55;;;;;;;8.67;6.13;;;26.90;45.80;;;;;;5011395;28;20435;-72
2023/06/08 12:39:21;;;;;;;6.90;5.73;;;26.30;47.10;;;;;;5010717;28;20431;-73
2023/06/08 12:41:46;;;;;;;13.30;6.40;;;26.00;47.50;;;;;;5007565;28;20216;-73
2023/06/08 12:44:12;;;;;;;13.93;5.60;;;25.60;52.10;;;;;;5007677;28;20268;-73
2023/06/08 12:46:38;;;;;;;9.40;5.70;;;24.80;51.40;;;;;;5008540;28;20192;-72